sensor_id;sensor_type;location;lat;lon;timestamp;P1;durP1;ratioP1;P2;durP2;ratioP2
39400;SDS011;54391;50.000;7.360;2023-03-16T00:00:05;8.23;;;3.40;;
39400;SDS011;54391;50.000;7.360;2023-03-16T00:02:36;5.95;;;3.25;;
39400;SDS011;54391;50.000;7.360;2023-03-16T00:05:03;6.20;;;3.00;;
39400;SDS011;54391;50.000;7.360;2023-03-16T00:07:32;10.00;;;2.97;;
39400;SDS011;54391;50.000;7.360;2023-03-16T00:10:00;7.93;;;3.30;;
39400;SDS011;54391;50.000;7.360;2023-03-16T00:12:28;5.55;;;3.28;;
39400;SDS011;54391;50.000;7.360;2023-03-16T00:14:59;7.30;;;3.50;;
39400;SDS011;54391;50.000;7.360;2023-03-16T00:17:27;6.22;;;2.83;;
39400;SDS011;54391;50.000;7.360;2023-03-16T00:19:54;5.93;;;2.70;;
39400;SDS011;54391;50.000;7.360;2023-03-16T00:22:24;5.63;;;2.90;;
39400;SDS011;54391;50.000;7.360;2023-03-16T00:24:53;9.25;;;3.33;;
39400;SDS011;54391;50.000;7.360;2023-03-16T00:27:22;8.07;;;3.13;;
39400;SDS011;54391;50.000;7.360;2023-03-16T00:29:51;6.68;;;3.03;;
39400;SDS011;54391;50.000;7.360;2023-03-16T00:32:22;5.15;;;2.80;;
39400;SDS011;54391;50.000;7.360;2023-03-16T00:34:50;6.00;;;3.33;;
39400;SDS011;54391;50.000;7.360;2023-03-16T00:37:18;7.50;;;3.28;;
39400;SDS011;54391;50.000;7.360;2023-03-16T00:39:47;6.20;;;3.47;;
39400;SDS011;54391;50.000;7.360;2023-03-16T00:42:17;6.70;;;3.38;;
39400;SDS011;54391;50.000;7.360;2023-03-16T00:44:45;6.72;;;3.03;;
39400;SDS011;54391;50.000;7.360;2023-03-16T00:47:12;6.28;;;3.55;;
39400;SDS011;54391;50.000;7.360;2023-03-16T00:49:40;8.60;;;3.38;;
39400;SDS011;54391;50.000;7.360;2023-03-16T00:52:10;6.75;;;3.47;;
39400;SDS011;54391;50.000;7.360;2023-03-16T00:54:39;12.73;;;3.65;;
39400;SDS011;54391;50.000;7.360;2023-03-16T00:57:08;13.48;;;4.20;;
39400;SDS011;54391;50.000;7.360;2023-03-16T00:59:39;8.40;;;3.58;;
39400;SDS011;54391;50.000;7.360;2023-03-16T01:02:07;7.63;;;4.13;;
39400;SDS011;54391;50.000;7.360;2023-03-16T01:04:35;7.35;;;3.22;;
39400;SDS011;54391;50.000;7.360;2023-03-16T01:07:04;5.97;;;3.15;;
39400;SDS011;54391;50.000;7.360;2023-03-16T01:09:31;4.88;;;3.00;;
39400;SDS011;54391;50.000;7.360;2023-03-16T01:12:02;6.03;;;3.60;;
39400;SDS011;54391;50.000;7.360;2023-03-16T01:14:31;10.65;;;3.60;;
39400;SDS011;54391;50.000;7.360;2023-03-16T01:17:01;8.63;;;3.80;;
39400;SDS011;54391;50.000;7.360;2023-03-16T01:19:28;5.80;;;3.28;;
39400;SDS011;54391;50.000;7.360;2023-03-16T01:21:58;6.05;;;2.83;;
39400;SDS011;54391;50.000;7.360;2023-03-16T01:24:27;6.32;;;3.10;;
39400;SDS011;54391;50.000;7.360;2023-03-16T01:26:54;8.32;;;3.58;;
39400;SDS011;54391;50.000;7.360;2023-03-16T01:29:22;8.02;;;3.65;;
39400;SDS011;54391;50.000;7.360;2023-03-16T01:31:51;8.60;;;4.35;;
39400;SDS011;54391;50.000;7.360;2023-03-16T01:34:21;8.35;;;3.85;;
39400;SDS011;54391;50.000;7.360;2023-03-16T01:36:49;8.15;;;3.83;;
39400;SDS011;54391;50.000;7.360;2023-03-16T01:39:26;8.02;;;3.53;;
39400;SDS011;54391;50.000;7.360;2023-03-16T01:41:54;9.23;;;4.05;;
39400;SDS011;54391;50.000;7.360;2023-03-16T01:44:22;9.82;;;3.83;;
39400;SDS011;54391;50.000;7.360;2023-03-16T01:46:55;8.13;;;3.80;;
39400;SDS011;54391;50.000;7.360;2023-03-16T01:49:24;9.13;;;4.10;;
39400;SDS011;54391;50.000;7.360;2023-03-16T01:51:55;11.23;;;4.55;;
39400;SDS011;54391;50.000;7.360;2023-03-16T01:54:31;9.73;;;4.50;;
39400;SDS011;54391;50.000;7.360;2023-03-16T01:57:03;9.35;;;4.82;;
39400;SDS011;54391;50.000;7.360;2023-03-16T01:59:35;12.63;;;4.50;;
39400;SDS011;54391;50.000;7.360;2023-03-16T02:02:05;9.30;;;4.65;;
39400;SDS011;54391;50.000;7.360;2023-03-16T02:04:38;12.63;;;5.18;;
39400;SDS011;54391;50.000;7.360;2023-03-16T02:07:12;9.35;;;4.57;;
39400;SDS011;54391;50.000;7.360;2023-03-16T02:09:43;11.32;;;5.13;;
39400;SDS011;54391;50.000;7.360;2023-03-16T02:12:14;13.48;;;4.63;;
39400;SDS011;54391;50.000;7.360;2023-03-16T02:14:46;8.73;;;4.32;;
39400;SDS011;54391;50.000;7.360;2023-03-16T02:17:15;9.05;;;4.78;;
39400;SDS011;54391;50.000;7.360;2023-03-16T02:19:50;13.63;;;5.47;;
39400;SDS011;54391;50.000;7.360;2023-03-16T02:22:21;10.38;;;4.97;;
39400;SDS011;54391;50.000;7.360;2023-03-16T02:24:49;12.32;;;5.00;;
39400;SDS011;54391;50.000;7.360;2023-03-16T02:27:19;12.07;;;5.35;;
39400;SDS011;54391;50.000;7.360;2023-03-16T02:29:59;8.67;;;4.60;;
39400;SDS011;54391;50.000;7.360;2023-03-16T02:32:38;14.07;;;5.35;;
39400;SDS011;54391;50.000;7.360;2023-03-16T02:35:07;12.73;;;5.95;;
39400;SDS011;54391;50.000;7.360;2023-03-16T02:37:37;11.80;;;5.15;;
39400;SDS011;54391;50.000;7.360;2023-03-16T02:40:15;10.80;;;5.43;;
39400;SDS011;54391;50.000;7.360;2023-03-16T02:42:49;11.52;;;5.63;;
39400;SDS011;54391;50.000;7.360;2023-03-16T02:45:24;11.05;;;5.40;;
39400;SDS011;54391;50.000;7.360;2023-03-16T02:47:59;10.18;;;4.90;;
39400;SDS011;54391;50.000;7.360;2023-03-16T02:50:29;11.90;;;5.07;;
39400;SDS011;54391;50.000;7.360;2023-03-16T02:52:56;12.00;;;5.15;;
39400;SDS011;54391;50.000;7.360;2023-03-16T02:55:23;13.80;;;5.57;;
39400;SDS011;54391;50.000;7.360;2023-03-16T02:57:51;12.70;;;6.47;;
39400;SDS011;54391;50.000;7.360;2023-03-16T03:00:19;11.57;;;6.03;;
39400;SDS011;54391;50.000;7.360;2023-03-16T03:02:50;11.82;;;5.72;;
39400;SDS011;54391;50.000;7.360;2023-03-16T03:05:17;11.88;;;6.22;;
39400;SDS011;54391;50.000;7.360;2023-03-16T03:07:45;13.35;;;6.07;;
39400;SDS011;54391;50.000;7.360;2023-03-16T03:10:13;13.25;;;6.28;;
39400;SDS011;54391;50.000;7.360;2023-03-16T03:12:40;12.75;;;6.07;;
39400;SDS011;54391;50.000;7.360;2023-03-16T03:15:08;16.38;;;6.00;;
39400;SDS011;54391;50.000;7.360;2023-03-16T03:17:54;14.25;;;6.13;;
39400;SDS011;54391;50.000;7.360;2023-03-16T03:20:21;11.98;;;5.93;;
39400;SDS011;54391;50.000;7.360;2023-03-16T03:22:49;13.93;;;6.20;;
39400;SDS011;54391;50.000;7.360;2023-03-16T03:25:17;12.45;;;6.22;;
39400;SDS011;54391;50.000;7.360;2023-03-16T03:27:46;10.13;;;5.43;;
39400;SDS011;54391;50.000;7.360;2023-03-16T03:30:19;11.63;;;6.03;;
39400;SDS011;54391;50.000;7.360;2023-03-16T03:32:48;13.65;;;6.60;;
39400;SDS011;54391;50.000;7.360;2023-03-16T03:35:20;17.08;;;7.05;;
39400;SDS011;54391;50.000;7.360;2023-03-16T03:37:48;12.80;;;5.75;;
39400;SDS011;54391;50.000;7.360;2023-03-16T03:40:18;16.02;;;7.32;;
39400;SDS011;54391;50.000;7.360;2023-03-16T03:42:50;14.68;;;6.97;;
39400;SDS011;54391;50.000;7.360;2023-03-16T03:45:17;11.13;;;5.70;;
39400;SDS011;54391;50.000;7.360;2023-03-16T03:47:44;14.30;;;7.10;;
39400;SDS011;54391;50.000;7.360;2023-03-16T03:50:17;14.35;;;6.93;;
39400;SDS011;54391;50.000;7.360;2023-03-16T03:53:05;14.05;;;6.38;;
39400;SDS011;54391;50.000;7.360;2023-03-16T03:55:41;13.52;;;6.93;;
39400;SDS011;54391;50.000;7.360;2023-03-16T03:58:09;13.07;;;7.07;;
39400;SDS011;54391;50.000;7.360;2023-03-16T04:00:37;15.80;;;7.50;;
39400;SDS011;54391;50.000;7.360;2023-03-16T04:03:04;14.45;;;6.78;;
39400;SDS011;54391;50.000;7.360;2023-03-16T04:05:40;16.80;;;7.65;;
39400;SDS011;54391;50.000;7.360;2023-03-16T04:08:08;16.58;;;7.55;;
39400;SDS011;54391;50.000;7.360;2023-03-16T04:10:36;14.82;;;7.82;;
39400;SDS011;54391;50.000;7.360;2023-03-16T04:13:03;15.48;;;7.53;;
39400;SDS011;54391;50.000;7.360;2023-03-16T04:15:32;12.98;;;6.70;;
39400;SDS011;54391;50.000;7.360;2023-03-16T04:18:17;14.32;;;7.00;;
39400;SDS011;54391;50.000;7.360;2023-03-16T04:20:44;12.10;;;6.03;;
39400;SDS011;54391;50.000;7.360;2023-03-16T04:23:17;14.73;;;6.80;;
39400;SDS011;54391;50.000;7.360;2023-03-16T04:25:47;17.00;;;7.53;;
39400;SDS011;54391;50.000;7.360;2023-03-16T04:28:17;13.07;;;7.05;;
39400;SDS011;54391;50.000;7.360;2023-03-16T04:30:49;12.95;;;6.93;;
39400;SDS011;54391;50.000;7.360;2023-03-16T04:33:28;13.55;;;6.75;;
39400;SDS011;54391;50.000;7.360;2023-03-16T04:35:56;12.25;;;7.15;;
39400;SDS011;54391;50.000;7.360;2023-03-16T04:38:25;13.13;;;6.85;;
39400;SDS011;54391;50.000;7.360;2023-03-16T04:40:55;12.07;;;5.80;;
39400;SDS011;54391;50.000;7.360;2023-03-16T04:43:27;13.48;;;6.63;;
39400;SDS011;54391;50.000;7.360;2023-03-16T04:46:02;14.00;;;6.95;;
39400;SDS011;54391;50.000;7.360;2023-03-16T04:48:31;12.15;;;6.63;;
39400;SDS011;54391;50.000;7.360;2023-03-16T04:51:00;11.15;;;6.40;;
39400;SDS011;54391;50.000;7.360;2023-03-16T04:53:31;13.25;;;6.40;;
39400;SDS011;54391;50.000;7.360;2023-03-16T04:56:05;13.32;;;6.43;;
39400;SDS011;54391;50.000;7.360;2023-03-16T04:58:34;14.80;;;6.70;;
39400;SDS011;54391;50.000;7.360;2023-03-16T05:01:03;11.70;;;6.05;;
39400;SDS011;54391;50.000;7.360;2023-03-16T05:03:32;13.95;;;6.82;;
39400;SDS011;54391;50.000;7.360;2023-03-16T05:06:04;13.00;;;5.95;;
39400;SDS011;54391;50.000;7.360;2023-03-16T05:08:35;12.32;;;5.32;;
39400;SDS011;54391;50.000;7.360;2023-03-16T05:11:03;13.95;;;6.03;;
39400;SDS011;54391;50.000;7.360;2023-03-16T05:13:35;11.93;;;5.78;;
39400;SDS011;54391;50.000;7.360;2023-03-16T05:16:03;12.68;;;6.05;;
39400;SDS011;54391;50.000;7.360;2023-03-16T05:18:35;9.82;;;5.05;;
39400;SDS011;54391;50.000;7.360;2023-03-16T05:21:03;12.02;;;5.75;;
39400;SDS011;54391;50.000;7.360;2023-03-16T05:23:44;18.60;;;6.68;;
39400;SDS011;54391;50.000;7.360;2023-03-16T05:26:12;12.20;;;6.10;;
39400;SDS011;54391;50.000;7.360;2023-03-16T05:28:40;14.50;;;6.30;;
39400;SDS011;54391;50.000;7.360;2023-03-16T05:31:10;10.93;;;6.13;;
39400;SDS011;54391;50.000;7.360;2023-03-16T05:33:42;13.80;;;6.53;;
39400;SDS011;54391;50.000;7.360;2023-03-16T05:36:13;12.82;;;6.47;;
39400;SDS011;54391;50.000;7.360;2023-03-16T05:38:45;13.50;;;7.05;;
39400;SDS011;54391;50.000;7.360;2023-03-16T05:41:21;12.52;;;6.25;;
39400;SDS011;54391;50.000;7.360;2023-03-16T05:44:14;12.23;;;6.60;;
39400;SDS011;54391;50.000;7.360;2023-03-16T05:46:55;12.02;;;6.55;;
39400;SDS011;54391;50.000;7.360;2023-03-16T05:49:23;13.07;;;6.25;;
39400;SDS011;54391;50.000;7.360;2023-03-16T05:51:51;12.43;;;6.88;;
39400;SDS011;54391;50.000;7.360;2023-03-16T05:54:20;12.02;;;7.00;;
39400;SDS011;54391;50.000;7.360;2023-03-16T05:56:47;13.52;;;7.07;;
39400;SDS011;54391;50.000;7.360;2023-03-16T05:59:15;14.38;;;7.32;;
39400;SDS011;54391;50.000;7.360;2023-03-16T06:01:47;16.67;;;6.57;;
39400;SDS011;54391;50.000;7.360;2023-03-16T06:04:14;13.93;;;8.10;;
39400;SDS011;54391;50.000;7.360;2023-03-16T06:06:42;14.75;;;6.47;;
39400;SDS011;54391;50.000;7.360;2023-03-16T06:09:21;12.95;;;6.20;;
39400;SDS011;54391;50.000;7.360;2023-03-16T06:11:48;14.32;;;6.95;;
39400;SDS011;54391;50.000;7.360;2023-03-16T06:14:16;14.75;;;7.35;;
39400;SDS011;54391;50.000;7.360;2023-03-16T06:16:44;13.15;;;6.40;;
39400;SDS011;54391;50.000;7.360;2023-03-16T06:19:13;15.70;;;7.63;;
39400;SDS011;54391;50.000;7.360;2023-03-16T06:21:41;18.27;;;8.38;;
39400;SDS011;54391;50.000;7.360;2023-03-16T06:24:10;14.93;;;7.00;;
39400;SDS011;54391;50.000;7.360;2023-03-16T06:26:39;16.90;;;7.95;;
39400;SDS011;54391;50.000;7.360;2023-03-16T06:29:09;14.10;;;7.43;;
39400;SDS011;54391;50.000;7.360;2023-03-16T06:31:38;14.30;;;7.75;;
39400;SDS011;54391;50.000;7.360;2023-03-16T06:34:05;13.43;;;5.80;;
39400;SDS011;54391;50.000;7.360;2023-03-16T06:36:33;15.68;;;7.03;;
39400;SDS011;54391;50.000;7.360;2023-03-16T06:39:03;13.07;;;6.85;;
39400;SDS011;54391;50.000;7.360;2023-03-16T06:41:58;14.57;;;6.25;;
39400;SDS011;54391;50.000;7.360;2023-03-16T06:44:27;11.82;;;5.82;;
39400;SDS011;54391;50.000;7.360;2023-03-16T06:47:06;14.02;;;6.93;;
39400;SDS011;54391;50.000;7.360;2023-03-16T06:49:33;13.60;;;7.78;;
39400;SDS011;54391;50.000;7.360;2023-03-16T06:52:05;15.60;;;7.35;;
39400;SDS011;54391;50.000;7.360;2023-03-16T06:54:34;15.63;;;8.13;;
39400;SDS011;54391;50.000;7.360;2023-03-16T06:57:03;13.15;;;6.80;;
39400;SDS011;54391;50.000;7.360;2023-03-16T06:59:31;12.68;;;6.80;;
39400;SDS011;54391;50.000;7.360;2023-03-16T07:01:58;15.98;;;6.93;;
39400;SDS011;54391;50.000;7.360;2023-03-16T07:04:26;15.15;;;7.93;;
39400;SDS011;54391;50.000;7.360;2023-03-16T07:06:54;13.70;;;7.15;;
39400;SDS011;54391;50.000;7.360;2023-03-16T07:09:21;12.15;;;6.63;;
39400;SDS011;54391;50.000;7.360;2023-03-16T07:11:49;13.02;;;6.53;;
39400;SDS011;54391;50.000;7.360;2023-03-16T07:14:18;12.32;;;6.45;;
39400;SDS011;54391;50.000;7.360;2023-03-16T07:16:48;12.57;;;6.88;;
39400;SDS011;54391;50.000;7.360;2023-03-16T07:19:18;12.77;;;7.05;;
39400;SDS011;54391;50.000;7.360;2023-03-16T07:21:47;13.15;;;6.75;;
39400;SDS011;54391;50.000;7.360;2023-03-16T07:24:19;12.48;;;6.32;;
39400;SDS011;54391;50.000;7.360;2023-03-16T07:26:47;11.77;;;5.85;;
39400;SDS011;54391;50.000;7.360;2023-03-16T07:31:51;9.73;;;5.55;;
39400;SDS011;54391;50.000;7.360;2023-03-16T07:34:22;11.13;;;6.75;;
39400;SDS011;54391;50.000;7.360;2023-03-16T07:36:54;12.77;;;6.35;;
39400;SDS011;54391;50.000;7.360;2023-03-16T07:39:24;11.38;;;5.93;;
39400;SDS011;54391;50.000;7.360;2023-03-16T07:41:58;11.88;;;7.05;;
39400;SDS011;54391;50.000;7.360;2023-03-16T07:44:47;9.85;;;5.60;;
39400;SDS011;54391;50.000;7.360;2023-03-16T07:47:14;15.93;;;6.93;;
39400;SDS011;54391;50.000;7.360;2023-03-16T07:49:42;16.10;;;6.82;;
39400;SDS011;54391;50.000;7.360;2023-03-16T07:52:10;13.38;;;7.18;;
39400;SDS011;54391;50.000;7.360;2023-03-16T07:54:39;13.63;;;6.43;;
39400;SDS011;54391;50.000;7.360;2023-03-16T07:57:08;11.20;;;5.82;;
39400;SDS011;54391;50.000;7.360;2023-03-16T07:59:41;11.85;;;6.03;;
39400;SDS011;54391;50.000;7.360;2023-03-16T08:02:13;13.70;;;6.95;;
39400;SDS011;54391;50.000;7.360;2023-03-16T08:04:42;11.95;;;6.15;;
39400;SDS011;54391;50.000;7.360;2023-03-16T08:07:12;15.63;;;7.57;;
39400;SDS011;54391;50.000;7.360;2023-03-16T08:09:54;11.10;;;6.63;;
39400;SDS011;54391;50.000;7.360;2023-03-16T08:12:28;13.00;;;7.80;;
39400;SDS011;54391;50.000;7.360;2023-03-16T08:14:56;13.15;;;6.82;;
39400;SDS011;54391;50.000;7.360;2023-03-16T08:17:29;12.27;;;5.97;;
39400;SDS011;54391;50.000;7.360;2023-03-16T08:19:58;11.82;;;5.95;;
39400;SDS011;54391;50.000;7.360;2023-03-16T08:22:27;10.90;;;6.45;;
39400;SDS011;54391;50.000;7.360;2023-03-16T08:24:55;12.70;;;6.57;;
39400;SDS011;54391;50.000;7.360;2023-03-16T08:27:23;9.95;;;5.32;;
39400;SDS011;54391;50.000;7.360;2023-03-16T08:29:57;10.48;;;5.20;;
39400;SDS011;54391;50.000;7.360;2023-03-16T08:32:30;13.00;;;5.53;;
39400;SDS011;54391;50.000;7.360;2023-03-16T08:34:58;11.68;;;6.25;;
39400;SDS011;54391;50.000;7.360;2023-03-16T08:37:27;11.43;;;5.93;;
39400;SDS011;54391;50.000;7.360;2023-03-16T08:39:55;10.05;;;5.07;;
39400;SDS011;54391;50.000;7.360;2023-03-16T08:42:24;10.55;;;6.07;;
39400;SDS011;54391;50.000;7.360;2023-03-16T08:44:56;12.55;;;6.38;;
39400;SDS011;54391;50.000;7.360;2023-03-16T08:47:27;10.45;;;6.35;;
39400;SDS011;54391;50.000;7.360;2023-03-16T08:49:57;11.23;;;6.57;;
39400;SDS011;54391;50.000;7.360;2023-03-16T08:52:24;12.50;;;6.15;;
39400;SDS011;54391;50.000;7.360;2023-03-16T08:54:51;11.05;;;5.97;;
39400;SDS011;54391;50.000;7.360;2023-03-16T08:57:19;15.07;;;7.40;;
39400;SDS011;54391;50.000;7.360;2023-03-16T08:59:46;11.85;;;6.00;;
39400;SDS011;54391;50.000;7.360;2023-03-16T09:02:14;11.13;;;5.90;;
39400;SDS011;54391;50.000;7.360;2023-03-16T09:04:41;14.43;;;6.40;;
39400;SDS011;54391;50.000;7.360;2023-03-16T09:07:10;12.48;;;6.82;;
39400;SDS011;54391;50.000;7.360;2023-03-16T09:09:37;9.15;;;6.15;;
39400;SDS011;54391;50.000;7.360;2023-03-16T09:12:04;9.93;;;6.35;;
39400;SDS011;54391;50.000;7.360;2023-03-16T09:14:32;14.02;;;5.95;;
39400;SDS011;54391;50.000;7.360;2023-03-16T09:17:01;12.52;;;6.22;;
39400;SDS011;54391;50.000;7.360;2023-03-16T09:19:29;10.63;;;5.28;;
39400;SDS011;54391;50.000;7.360;2023-03-16T09:21:57;15.15;;;6.57;;
39400;SDS011;54391;50.000;7.360;2023-03-16T09:24:26;11.77;;;5.38;;
39400;SDS011;54391;50.000;7.360;2023-03-16T09:26:53;11.05;;;5.85;;
39400;SDS011;54391;50.000;7.360;2023-03-16T09:29:21;9.65;;;5.32;;
39400;SDS011;54391;50.000;7.360;2023-03-16T09:31:48;13.85;;;5.95;;
39400;SDS011;54391;50.000;7.360;2023-03-16T09:34:16;8.60;;;5.68;;
39400;SDS011;54391;50.000;7.360;2023-03-16T09:36:43;10.98;;;6.30;;
39400;SDS011;54391;50.000;7.360;2023-03-16T09:39:10;11.45;;;6.25;;
39400;SDS011;54391;50.000;7.360;2023-03-16T09:41:44;11.18;;;6.38;;
39400;SDS011;54391;50.000;7.360;2023-03-16T09:44:20;9.38;;;5.78;;
39400;SDS011;54391;50.000;7.360;2023-03-16T09:46:53;7.97;;;5.25;;
39400;SDS011;54391;50.000;7.360;2023-03-16T09:49:24;10.90;;;5.43;;
39400;SDS011;54391;50.000;7.360;2023-03-16T09:51:58;8.38;;;4.70;;
39400;SDS011;54391;50.000;7.360;2023-03-16T09:54:33;7.82;;;4.38;;
39400;SDS011;54391;50.000;7.360;2023-03-16T10:07:24;8.45;;;4.50;;
39400;SDS011;54391;50.000;7.360;2023-03-16T10:09:57;7.45;;;4.60;;
39400;SDS011;54391;50.000;7.360;2023-03-16T10:12:33;9.20;;;5.00;;
39400;SDS011;54391;50.000;7.360;2023-03-16T10:15:07;11.38;;;4.90;;
39400;SDS011;54391;50.000;7.360;2023-03-16T10:17:39;8.02;;;4.38;;
39400;SDS011;54391;50.000;7.360;2023-03-16T10:20:12;8.93;;;4.43;;
39400;SDS011;54391;50.000;7.360;2023-03-16T10:22:42;7.18;;;3.67;;
39400;SDS011;54391;50.000;7.360;2023-03-16T10:25:14;7.90;;;4.38;;
39400;SDS011;54391;50.000;7.360;2023-03-16T10:27:47;11.15;;;5.25;;
39400;SDS011;54391;50.000;7.360;2023-03-16T10:30:18;9.40;;;4.90;;
39400;SDS011;54391;50.000;7.360;2023-03-16T10:32:50;7.45;;;4.03;;
39400;SDS011;54391;50.000;7.360;2023-03-16T10:35:21;8.93;;;4.50;;
39400;SDS011;54391;50.000;7.360;2023-03-16T10:38:00;8.85;;;5.38;;
39400;SDS011;54391;50.000;7.360;2023-03-16T10:40:29;10.05;;;5.55;;
39400;SDS011;54391;50.000;7.360;2023-03-16T10:43:03;9.93;;;4.40;;
39400;SDS011;54391;50.000;7.360;2023-03-16T10:45:33;7.78;;;4.90;;
39400;SDS011;54391;50.000;7.360;2023-03-16T10:48:06;9.45;;;4.53;;
39400;SDS011;54391;50.000;7.360;2023-03-16T10:50:34;7.90;;;4.10;;
39400;SDS011;54391;50.000;7.360;2023-03-16T10:53:02;10.38;;;4.38;;
39400;SDS011;54391;50.000;7.360;2023-03-16T10:55:29;7.75;;;4.60;;
39400;SDS011;54391;50.000;7.360;2023-03-16T10:58:07;6.45;;;3.55;;
39400;SDS011;54391;50.000;7.360;2023-03-16T11:00:35;7.10;;;3.15;;
39400;SDS011;54391;50.000;7.360;2023-03-16T11:03:18;7.32;;;3.92;;
39400;SDS011;54391;50.000;7.360;2023-03-16T11:05:55;7.03;;;3.40;;
39400;SDS011;54391;50.000;7.360;2023-03-16T11:08:25;6.73;;;3.50;;
39400;SDS011;54391;50.000;7.360;2023-03-16T11:10:57;6.57;;;3.75;;
39400;SDS011;54391;50.000;7.360;2023-03-16T11:13:31;5.10;;;3.17;;
39400;SDS011;54391;50.000;7.360;2023-03-16T11:16:00;6.85;;;3.80;;
39400;SDS011;54391;50.000;7.360;2023-03-16T11:18:34;6.30;;;4.05;;
39400;SDS011;54391;50.000;7.360;2023-03-16T11:21:07;7.25;;;4.03;;
39400;SDS011;54391;50.000;7.360;2023-03-16T11:26:14;8.05;;;3.95;;
39400;SDS011;54391;50.000;7.360;2023-03-16T11:28:54;7.15;;;4.18;;
39400;SDS011;54391;50.000;7.360;2023-03-16T11:31:30;9.52;;;4.40;;
39400;SDS011;54391;50.000;7.360;2023-03-16T11:34:10;10.00;;;4.70;;
39400;SDS011;54391;50.000;7.360;2023-03-16T11:36:43;4.55;;;3.05;;
39400;SDS011;54391;50.000;7.360;2023-03-16T11:39:19;6.60;;;3.45;;
39400;SDS011;54391;50.000;7.360;2023-03-16T11:41:56;7.75;;;3.78;;
39400;SDS011;54391;50.000;7.360;2023-03-16T11:44:36;7.93;;;3.33;;
39400;SDS011;54391;50.000;7.360;2023-03-16T11:47:23;7.95;;;4.22;;
39400;SDS011;54391;50.000;7.360;2023-03-16T11:50:14;7.10;;;3.00;;
39400;SDS011;54391;50.000;7.360;2023-03-16T11:52:49;6.20;;;3.50;;
39400;SDS011;54391;50.000;7.360;2023-03-16T11:55:29;7.00;;;3.72;;
39400;SDS011;54391;50.000;7.360;2023-03-16T12:01:05;8.30;;;3.38;;
39400;SDS011;54391;50.000;7.360;2023-03-16T12:03:45;8.32;;;4.18;;
39400;SDS011;54391;50.000;7.360;2023-03-16T12:06:35;8.27;;;4.20;;
39400;SDS011;54391;50.000;7.360;2023-03-16T12:12:24;13.90;;;4.35;;
39400;SDS011;54391;50.000;7.360;2023-03-16T12:15:02;8.93;;;4.30;;
39400;SDS011;54391;50.000;7.360;2023-03-16T12:17:40;10.20;;;5.00;;
39400;SDS011;54391;50.000;7.360;2023-03-16T12:20:12;9.95;;;5.00;;
39400;SDS011;54391;50.000;7.360;2023-03-16T12:22:45;7.03;;;4.03;;
39400;SDS011;54391;50.000;7.360;2023-03-16T12:25:18;6.72;;;3.58;;
39400;SDS011;54391;50.000;7.360;2023-03-16T12:27:48;6.47;;;3.58;;
39400;SDS011;54391;50.000;7.360;2023-03-16T12:30:23;7.28;;;3.55;;
39400;SDS011;54391;50.000;7.360;2023-03-16T12:33:00;6.88;;;3.67;;
39400;SDS011;54391;50.000;7.360;2023-03-16T12:35:35;7.78;;;4.25;;
39400;SDS011;54391;50.000;7.360;2023-03-16T12:38:34;10.60;;;4.63;;
39400;SDS011;54391;50.000;7.360;2023-03-16T12:41:13;6.85;;;4.00;;
39400;SDS011;54391;50.000;7.360;2023-03-16T12:44:00;8.75;;;4.13;;
39400;SDS011;54391;50.000;7.360;2023-03-16T12:46:38;6.72;;;3.58;;
39400;SDS011;54391;50.000;7.360;2023-03-16T12:49:16;8.70;;;4.10;;
39400;SDS011;54391;50.000;7.360;2023-03-16T12:51:45;6.93;;;4.35;;
39400;SDS011;54391;50.000;7.360;2023-03-16T12:54:25;7.07;;;3.92;;
39400;SDS011;54391;50.000;7.360;2023-03-16T12:56:52;9.07;;;4.28;;
39400;SDS011;54391;50.000;7.360;2023-03-16T12:59:34;5.70;;;3.78;;
39400;SDS011;54391;50.000;7.360;2023-03-16T13:02:04;7.22;;;3.95;;
39400;SDS011;54391;50.000;7.360;2023-03-16T13:04:40;7.32;;;3.60;;
39400;SDS011;54391;50.000;7.360;2023-03-16T13:07:14;7.28;;;3.85;;
39400;SDS011;54391;50.000;7.360;2023-03-16T13:09:47;8.73;;;4.18;;
39400;SDS011;54391;50.000;7.360;2023-03-16T13:12:22;5.18;;;3.45;;
39400;SDS011;54391;50.000;7.360;2023-03-16T13:14:51;7.25;;;4.00;;
39400;SDS011;54391;50.000;7.360;2023-03-16T13:17:22;8.15;;;4.45;;
39400;SDS011;54391;50.000;7.360;2023-03-16T13:19:58;9.35;;;4.65;;
39400;SDS011;54391;50.000;7.360;2023-03-16T13:22:40;8.90;;;4.53;;
39400;SDS011;54391;50.000;7.360;2023-03-16T13:25:15;8.88;;;4.82;;
39400;SDS011;54391;50.000;7.360;2023-03-16T13:27:47;8.45;;;4.75;;
39400;SDS011;54391;50.000;7.360;2023-03-16T13:30:18;7.53;;;4.28;;
39400;SDS011;54391;50.000;7.360;2023-03-16T13:32:47;9.68;;;4.88;;
39400;SDS011;54391;50.000;7.360;2023-03-16T13:35:18;12.20;;;4.75;;
39400;SDS011;54391;50.000;7.360;2023-03-16T13:37:50;9.80;;;4.85;;
39400;SDS011;54391;50.000;7.360;2023-03-16T13:40:21;7.57;;;4.30;;
39400;SDS011;54391;50.000;7.360;2023-03-16T13:42:50;7.97;;;4.40;;
39400;SDS011;54391;50.000;7.360;2023-03-16T13:45:20;9.68;;;4.68;;
39400;SDS011;54391;50.000;7.360;2023-03-16T13:47:49;8.00;;;3.80;;
39400;SDS011;54391;50.000;7.360;2023-03-16T13:50:17;7.32;;;4.05;;
39400;SDS011;54391;50.000;7.360;2023-03-16T13:52:50;6.75;;;4.18;;
39400;SDS011;54391;50.000;7.360;2023-03-16T13:55:26;9.75;;;5.13;;
39400;SDS011;54391;50.000;7.360;2023-03-16T13:57:57;9.95;;;4.13;;
39400;SDS011;54391;50.000;7.360;2023-03-16T14:00:26;8.73;;;4.28;;
39400;SDS011;54391;50.000;7.360;2023-03-16T14:02:57;8.43;;;4.68;;
39400;SDS011;54391;50.000;7.360;2023-03-16T14:05:28;6.78;;;4.28;;
39400;SDS011;54391;50.000;7.360;2023-03-16T14:07:59;10.70;;;4.22;;
39400;SDS011;54391;50.000;7.360;2023-03-16T14:10:31;8.30;;;4.00;;
39400;SDS011;54391;50.000;7.360;2023-03-16T14:13:06;8.90;;;5.32;;
39400;SDS011;54391;50.000;7.360;2023-03-16T14:15:35;7.35;;;4.15;;
39400;SDS011;54391;50.000;7.360;2023-03-16T14:18:11;8.57;;;4.13;;
39400;SDS011;54391;50.000;7.360;2023-03-16T14:20:40;9.95;;;4.72;;
39400;SDS011;54391;50.000;7.360;2023-03-16T14:23:15;8.40;;;5.13;;
39400;SDS011;54391;50.000;7.360;2023-03-16T14:25:47;9.52;;;5.05;;
39400;SDS011;54391;50.000;7.360;2023-03-16T14:28:15;8.60;;;4.97;;
39400;SDS011;54391;50.000;7.360;2023-03-16T14:30:51;8.25;;;4.50;;
39400;SDS011;54391;50.000;7.360;2023-03-16T14:33:25;12.25;;;6.25;;
39400;SDS011;54391;50.000;7.360;2023-03-16T14:35:54;11.13;;;6.03;;
39400;SDS011;54391;50.000;7.360;2023-03-16T14:38:27;10.65;;;5.15;;
39400;SDS011;54391;50.000;7.360;2023-03-16T14:41:01;8.18;;;5.03;;
39400;SDS011;54391;50.000;7.360;2023-03-16T14:43:30;9.80;;;4.57;;
39400;SDS011;54391;50.000;7.360;2023-03-16T14:46:01;9.85;;;5.07;;
39400;SDS011;54391;50.000;7.360;2023-03-16T14:48:30;6.93;;;4.47;;
39400;SDS011;54391;50.000;7.360;2023-03-16T14:50:59;11.82;;;5.30;;
39400;SDS011;54391;50.000;7.360;2023-03-16T14:53:28;11.95;;;5.18;;
39400;SDS011;54391;50.000;7.360;2023-03-16T14:55:56;7.60;;;4.38;;
39400;SDS011;54391;50.000;7.360;2023-03-16T14:58:25;7.35;;;4.72;;
39400;SDS011;54391;50.000;7.360;2023-03-16T15:00:52;9.05;;;4.38;;
39400;SDS011;54391;50.000;7.360;2023-03-16T15:03:21;8.80;;;3.88;;
39400;SDS011;54391;50.000;7.360;2023-03-16T15:05:57;12.18;;;4.50;;
39400;SDS011;54391;50.000;7.360;2023-03-16T15:08:27;8.98;;;4.60;;
39400;SDS011;54391;50.000;7.360;2023-03-16T15:10:57;6.43;;;3.80;;
39400;SDS011;54391;50.000;7.360;2023-03-16T15:13:29;7.55;;;4.00;;
39400;SDS011;54391;50.000;7.360;2023-03-16T15:16:17;6.20;;;4.07;;
39400;SDS011;54391;50.000;7.360;2023-03-16T15:18:46;8.00;;;3.97;;
39400;SDS011;54391;50.000;7.360;2023-03-16T15:21:13;9.55;;;4.55;;
39400;SDS011;54391;50.000;7.360;2023-03-16T15:23:42;8.60;;;4.60;;
39400;SDS011;54391;50.000;7.360;2023-03-16T15:26:12;10.32;;;4.45;;